ΕΜΥ, Εθνική Μετεωρολογική Υπηρεσία - Δελτία Καιρού, Προγνώσεις

ΑΕΡΟΝΑΥΤΙΛΙΑ

GREEK AIRPORTS CODES

TAF LGTT 211000Z 2112/2121 06010KT 9999 FEW020 BECMG 2112/2114 02010G20KT=

EUROPEAN AIRPORTS CODES

LFPO 212100Z 19004KT 9999 FEW026 10/09 Q1022 NOSIG=